createdAt,value
2018-01-04T00:00:00.669Z,8.67
2018-01-04T00:02:31.851Z,9.20
2018-01-04T00:05:03.864Z,7.13
2018-01-04T00:07:34.756Z,6.50
2018-01-04T00:10:05.694Z,10.80
2018-01-04T00:12:36.580Z,10.07
2018-01-04T00:15:07.476Z,14.97
2018-01-04T00:17:38.439Z,9.77
2018-01-04T00:20:10.100Z,7.00
2018-01-04T00:22:41.237Z,4.80
2018-01-04T00:25:12.160Z,7.33
2018-01-04T00:27:43.804Z,4.50
2018-01-04T00:30:14.699Z,5.17
2018-01-04T00:32:45.613Z,10.37
2018-01-04T00:35:16.864Z,12.13
2018-01-04T00:37:47.806Z,7.23
2018-01-04T00:40:18.744Z,6.60
2018-01-04T00:42:49.636Z,6.67
2018-01-04T00:45:21.872Z,3.57
2018-01-04T00:47:53.464Z,5.73
2018-01-04T00:50:24.400Z,6.43
2018-01-04T00:52:55.488Z,7.03
2018-01-04T00:55:26.368Z,20.20
2018-01-04T00:57:57.264Z,16.03
2018-01-04T01:00:29.668Z,4.80
2018-01-04T01:03:00.632Z,4.00
2018-01-04T01:05:32.792Z,3.93
2018-01-04T01:08:05.267Z,12.60
2018-01-04T01:10:36.151Z,10.07
2018-01-04T01:13:07.076Z,10.10
2018-01-04T01:15:38.020Z,10.17
2018-01-04T01:18:09.180Z,5.27
2018-01-04T01:20:40.064Z,4.17
2018-01-04T01:23:12.268Z,7.80
2018-01-04T01:25:45.504Z,7.87
2018-01-04T01:28:16.697Z,16.70
2018-01-04T01:30:47.596Z,7.60
2018-01-04T01:33:18.464Z,5.07
2018-01-04T01:35:50.344Z,7.30
2018-01-04T01:38:21.544Z,12.57
2018-01-04T01:40:53.034Z,8.53
2018-01-04T01:43:23.940Z,8.00
2018-01-04T01:45:54.822Z,11.07
2018-01-04T01:48:25.935Z,13.47
2018-01-04T01:50:57.570Z,4.80
2018-01-04T01:53:29.671Z,6.33
2018-01-04T01:56:00.569Z,3.50
2018-01-04T01:58:31.495Z,2.37
2018-01-04T02:01:02.709Z,4.03
2018-01-04T02:03:33.644Z,2.73
2018-01-04T02:06:05.792Z,4.03
2018-01-04T02:08:40.352Z,2.80
2018-01-04T02:11:11.516Z,4.23
2018-01-04T02:13:42.728Z,2.40
2018-01-04T02:16:30.044Z,5.13
2018-01-04T02:19:11.969Z,3.53
2018-01-04T02:21:53.556Z,7.90
2018-01-04T02:24:35.176Z,2.93
2018-01-04T02:27:16.760Z,4.10
2018-01-04T02:29:58.309Z,14.23
2018-01-04T02:32:39.873Z,6.83
2018-01-04T02:35:35.701Z,5.10
2018-01-04T02:38:17.132Z,12.07
2018-01-04T02:41:04.953Z,5.30
2018-01-04T02:43:46.616Z,1.87
2018-01-04T02:46:26.346Z,2.80
2018-01-04T02:48:57.595Z,3.93
2018-01-04T02:51:28.824Z,4.73
2018-01-04T02:54:01.006Z,2.90
2018-01-04T02:56:31.945Z,2.53
2018-01-04T02:59:03.988Z,4.10
2018-01-04T03:01:35.657Z,3.60
2018-01-04T03:04:06.592Z,3.30
2018-01-04T03:06:38.638Z,3.17
2018-01-04T03:09:10.297Z,2.10
2018-01-04T03:11:41.969Z,5.33
2018-01-04T03:14:13.624Z,2.03
2018-01-04T03:16:45.282Z,4.43
2018-01-04T03:19:17.564Z,3.97
2018-01-04T03:21:53.536Z,2.43
2018-01-04T03:24:39.371Z,4.60
2018-01-04T03:27:16.133Z,2.70
2018-01-04T03:30:03.215Z,3.17
2018-01-04T03:32:40.074Z,3.57
2018-01-04T03:35:16.852Z,3.70
2018-01-04T03:37:53.100Z,3.53
2018-01-04T03:40:29.863Z,4.23
2018-01-04T03:43:06.411Z,7.60
2018-01-04T03:45:43.292Z,1.70
2018-01-04T03:48:19.275Z,1.30
2018-01-04T03:50:56.005Z,4.10
2018-01-04T03:53:32.532Z,1.30
2018-01-04T03:56:08.389Z,3.47
2018-01-04T03:58:44.996Z,4.13
2018-01-04T04:01:20.853Z,2.73
2018-01-04T04:03:52.067Z,1.90
2018-01-04T04:06:27.924Z,1.60
2018-01-04T04:08:59.160Z,2.80
2018-01-04T04:11:31.407Z,4.30
2018-01-04T04:14:04.108Z,7.60
2018-01-04T04:16:35.112Z,3.77
2018-01-04T04:19:06.281Z,4.97
2018-01-04T04:21:37.213Z,2.23
2018-01-04T04:24:09.241Z,2.83
2018-01-04T04:26:40.149Z,2.93
2018-01-04T04:29:13.104Z,5.67
2018-01-04T04:31:44.748Z,2.80
2018-01-04T04:34:16.412Z,5.23
2018-01-04T04:36:48.123Z,17.23
2018-01-04T04:39:19.900Z,4.20
2018-01-04T04:41:52.538Z,5.10
2018-01-04T04:44:23.496Z,5.47
2018-01-04T04:46:54.465Z,3.53
2018-01-04T04:49:26.149Z,11.13
2018-01-04T04:51:57.052Z,7.33
2018-01-04T04:54:29.008Z,4.03
2018-01-04T04:56:59.875Z,3.63
2018-01-04T04:59:30.801Z,2.53
2018-01-04T05:02:02.444Z,4.73
2018-01-04T05:04:33.320Z,3.00
2018-01-04T05:07:04.196Z,2.80
2018-01-04T05:09:35.856Z,5.33
2018-01-04T05:12:07.131Z,6.03
2018-01-04T05:14:38.790Z,5.03
2018-01-04T05:17:10.450Z,11.00
2018-01-04T05:19:42.112Z,6.40
2018-01-04T05:22:13.744Z,5.80
2018-01-04T05:24:45.072Z,3.40
2018-01-04T05:27:15.909Z,4.77
2018-01-04T05:29:47.187Z,2.60
2018-01-04T05:32:18.805Z,3.77
2018-01-04T05:34:49.691Z,3.90
2018-01-04T05:37:21.321Z,3.43
2018-01-04T05:39:52.190Z,3.20
2018-01-04T05:42:23.375Z,4.83
2018-01-04T05:44:54.272Z,8.10
2018-01-04T05:47:25.192Z,6.30
2018-01-04T05:49:56.848Z,3.50
2018-01-04T05:52:28.496Z,3.00
2018-01-04T05:55:00.491Z,4.10
2018-01-04T05:57:31.380Z,4.40
2018-01-04T06:00:02.919Z,4.37
2018-01-04T06:02:33.819Z,5.77
2018-01-04T06:05:04.702Z,6.53
2018-01-04T06:07:35.596Z,6.73
2018-01-04T06:10:06.492Z,13.70
2018-01-04T06:12:37.739Z,4.70
2018-01-04T06:15:08.608Z,5.20
2018-01-04T06:17:39.465Z,4.77
2018-01-04T06:20:10.329Z,4.13
2018-01-04T06:22:41.221Z,4.57
2018-01-04T06:25:12.817Z,7.17
2018-01-04T06:27:43.716Z,4.83
2018-01-04T06:30:14.932Z,6.00
2018-01-04T06:32:46.608Z,10.27
2018-01-04T06:35:17.495Z,3.97
2018-01-04T06:37:48.372Z,6.60
2018-01-04T06:40:20.033Z,3.63
2018-01-04T06:42:51.291Z,4.40
2018-01-04T06:45:22.173Z,3.43
2018-01-04T06:47:54.344Z,3.80
2018-01-04T06:50:25.205Z,3.40
2018-01-04T06:52:56.881Z,6.13
2018-01-04T06:55:28.220Z,4.20
2018-01-04T06:57:59.895Z,3.97
2018-01-04T07:00:30.883Z,4.53
2018-01-04T07:03:01.761Z,3.90
2018-01-04T07:05:32.660Z,6.10
2018-01-04T07:08:03.574Z,4.47
2018-01-04T07:10:34.503Z,9.47
2018-01-04T07:13:05.992Z,8.37
2018-01-04T07:15:36.891Z,5.13
2018-01-04T07:18:07.741Z,8.77
2018-01-04T07:20:38.620Z,4.83
2018-01-04T07:23:09.548Z,6.13
2018-01-04T07:25:41.560Z,5.10
2018-01-04T07:28:12.442Z,7.90
2018-01-04T07:30:43.640Z,5.27
2018-01-04T07:33:14.500Z,4.30
2018-01-04T07:35:45.376Z,5.50
2018-01-04T07:38:17.365Z,8.47
2018-01-04T07:40:48.280Z,7.40
2018-01-04T07:43:20.304Z,9.07
2018-01-04T07:45:51.192Z,13.63
2018-01-04T07:48:22.044Z,3.27
2018-01-04T07:50:52.906Z,6.07
2018-01-04T07:53:23.752Z,4.70
2018-01-04T07:55:54.948Z,5.13
2018-01-04T07:58:25.836Z,5.60
2018-01-04T08:00:56.977Z,7.87
2018-01-04T08:03:27.840Z,4.10
2018-01-04T08:05:59.475Z,2.93
2018-01-04T08:08:30.356Z,2.30
2018-01-04T08:11:01.221Z,6.97
2018-01-04T08:13:32.232Z,11.10
2018-01-04T08:16:03.116Z,4.10
2018-01-04T08:18:34.028Z,15.93
2018-01-04T08:21:04.972Z,5.50
2018-01-04T08:23:35.846Z,6.33
2018-01-04T08:26:07.084Z,6.83
2018-01-04T08:28:37.954Z,6.17
2018-01-04T08:31:09.912Z,8.63
2018-01-04T08:33:41.600Z,9.93
2018-01-04T08:36:12.531Z,3.00
2018-01-04T08:38:43.527Z,7.80
2018-01-04T08:41:14.444Z,7.00
2018-01-04T08:43:45.547Z,4.20
2018-01-04T08:46:16.427Z,8.83
2018-01-04T08:48:47.322Z,4.47
2018-01-04T08:51:18.224Z,5.60
2018-01-04T08:53:49.376Z,8.50
2018-01-04T08:56:20.626Z,5.37
2018-01-04T08:58:52.280Z,13.97
2018-01-04T09:01:24.107Z,4.87
2018-01-04T09:03:54.997Z,6.70
2018-01-04T09:06:25.875Z,4.33
2018-01-04T09:09:02.100Z,7.57
2018-01-04T09:11:33.033Z,9.20
2018-01-04T09:14:04.293Z,5.77
2018-01-04T09:16:35.188Z,5.00
2018-01-04T09:19:06.085Z,10.47
2018-01-04T09:21:36.980Z,7.20
2018-01-04T09:24:08.648Z,5.43
2018-01-04T09:26:39.780Z,11.97
2018-01-04T09:29:11.456Z,7.03
2018-01-04T09:31:42.812Z,4.40
2018-01-04T09:34:13.704Z,11.90
2018-01-04T09:36:45.204Z,5.00
2018-01-04T09:39:16.097Z,3.53
2018-01-04T09:41:47.032Z,11.60
2018-01-04T09:44:18.193Z,7.27
2018-01-04T09:46:49.865Z,6.30
2018-01-04T09:49:20.900Z,19.90
2018-01-04T09:51:52.577Z,4.73
2018-01-04T09:54:23.446Z,4.93
2018-01-04T09:56:54.681Z,9.17
2018-01-04T09:59:25.580Z,11.50
2018-01-04T10:01:56.841Z,9.80
2018-01-04T10:04:27.731Z,5.33
2018-01-04T10:06:58.617Z,4.90
2018-01-04T10:09:29.506Z,7.67
2018-01-04T10:12:00.425Z,16.00
2018-01-04T10:14:31.496Z,14.80
2018-01-04T10:17:03.196Z,7.67
2018-01-04T10:19:34.112Z,9.30
2018-01-04T10:22:05.005Z,7.30
2018-01-04T10:24:36.669Z,9.00
2018-01-04T10:27:07.877Z,9.90
2018-01-04T10:29:38.788Z,8.53
2018-01-04T10:32:09.928Z,13.50
2018-01-04T10:34:40.839Z,10.30
2018-01-04T10:37:11.740Z,8.50
2018-01-04T10:39:42.645Z,8.37
2018-01-04T10:42:13.538Z,6.10
2018-01-04T10:44:44.864Z,9.23
2018-01-04T10:47:15.783Z,11.33
2018-01-04T10:49:46.792Z,10.90
2018-01-04T10:52:18.480Z,6.90
2018-01-04T10:54:49.416Z,8.57
2018-01-04T10:57:20.712Z,11.70
2018-01-04T10:59:51.668Z,14.50
2018-01-04T11:02:23.847Z,7.27
2018-01-04T11:04:55.479Z,7.30
2018-01-04T11:07:26.365Z,7.30
2018-01-04T11:09:57.235Z,14.60
2018-01-04T11:12:28.140Z,13.53
2018-01-04T11:14:59.380Z,20.63
2018-01-04T11:17:30.364Z,21.03
2018-01-04T11:20:01.318Z,32.60
2018-01-04T11:22:32.212Z,17.23
2018-01-04T11:25:03.071Z,28.53
2018-01-04T11:27:33.978Z,24.87
2018-01-04T11:30:04.872Z,22.63
2018-01-04T11:32:37.068Z,19.40
2018-01-04T11:35:07.985Z,20.93
2018-01-04T11:37:39.655Z,22.23
2018-01-04T11:40:10.578Z,32.70
2018-01-04T11:42:42.237Z,23.70
2018-01-04T11:45:14.084Z,17.30
2018-01-04T11:47:45.004Z,22.20
2018-01-04T11:50:15.949Z,16.67
2018-01-04T11:52:46.858Z,12.70
2018-01-04T11:55:17.796Z,20.13
2018-01-04T11:57:48.699Z,15.80
2018-01-04T12:00:19.592Z,14.40
2018-01-04T12:02:50.829Z,20.33
2018-01-04T12:05:21.710Z,16.17
2018-01-04T12:07:53.396Z,18.20
2018-01-04T12:10:24.324Z,11.50
2018-01-04T12:12:55.256Z,14.07
2018-01-04T12:15:26.357Z,19.63
2018-01-04T12:17:57.282Z,21.57
2018-01-04T12:20:28.195Z,15.47
2018-01-04T12:22:59.082Z,15.13
2018-01-04T12:25:29.964Z,19.13
2018-01-04T12:28:00.887Z,16.53
2018-01-04T12:30:31.784Z,23.23
2018-01-04T12:33:03.120Z,21.13
2018-01-04T12:35:34.024Z,19.77
2018-01-04T12:38:10.007Z,17.43
2018-01-04T12:40:40.912Z,19.63
2018-01-04T12:43:11.844Z,18.30
2018-01-04T12:45:43.200Z,22.20
2018-01-04T12:48:14.124Z,23.07
2018-01-04T12:50:45.072Z,27.20
2018-01-04T12:53:15.942Z,27.00
2018-01-04T12:55:46.848Z,21.00
2018-01-04T12:58:17.982Z,21.40
2018-01-04T13:00:49.975Z,19.90
2018-01-04T13:03:21.468Z,21.03
2018-01-04T13:05:52.397Z,15.67
2018-01-04T13:08:23.320Z,22.03
2018-01-04T13:10:54.224Z,21.97
2018-01-04T13:13:25.136Z,21.00
2018-01-04T13:15:57.204Z,23.67
2018-01-04T13:18:28.876Z,19.83
2018-01-04T13:21:00.795Z,24.63
2018-01-04T13:23:31.689Z,17.67
2018-01-04T13:26:03.467Z,25.40
2018-01-04T13:28:34.391Z,18.70
2018-01-04T13:31:05.373Z,19.87
2018-01-04T13:33:36.699Z,15.10
2018-01-04T13:36:07.600Z,15.17
2018-01-04T13:38:38.579Z,14.17
2018-01-04T13:41:09.500Z,10.37
2018-01-04T13:43:40.381Z,13.63
2018-01-04T13:46:12.457Z,14.40
2018-01-04T13:48:44.419Z,10.07
2018-01-04T13:51:19.268Z,11.17
2018-01-04T13:53:51.252Z,13.70
2018-01-04T13:56:23.105Z,23.33
2018-01-04T13:58:56.136Z,12.97
2018-01-04T14:01:27.224Z,16.00
2018-01-04T14:03:58.470Z,19.43
2018-01-04T14:06:30.168Z,15.93
2018-01-04T14:09:02.502Z,17.40
2018-01-04T14:11:33.697Z,19.57
2018-01-04T14:14:04.848Z,14.73
2018-01-04T14:16:37.117Z,23.93
2018-01-04T14:19:08.134Z,20.37
2018-01-04T14:21:40.192Z,17.23
2018-01-04T14:24:11.289Z,16.10
2018-01-04T14:26:43.998Z,22.43
2018-01-04T14:29:16.345Z,21.20
2018-01-04T14:31:47.524Z,13.97
2018-01-04T14:34:19.052Z,17.97
2018-01-04T14:36:50.203Z,25.70
2018-01-04T14:39:21.127Z,29.67
2018-01-04T14:41:53.467Z,20.67
2018-01-04T14:44:26.752Z,25.90
2018-01-04T14:46:58.862Z,19.97
2018-01-04T14:49:29.992Z,21.00
2018-01-04T14:52:02.134Z,18.40
2018-01-04T14:54:33.892Z,26.10
2018-01-04T14:57:04.988Z,20.27
2018-01-04T14:59:35.976Z,21.70
2018-01-04T15:02:06.969Z,26.03
2018-01-04T15:04:38.238Z,20.10
2018-01-04T15:07:09.234Z,18.90
2018-01-04T15:09:40.487Z,17.10
2018-01-04T15:12:12.084Z,13.40
2018-01-04T15:14:43.080Z,16.47
2018-01-04T15:17:14.141Z,13.50
2018-01-04T15:19:45.956Z,13.03
2018-01-04T15:22:18.035Z,16.50
2018-01-04T15:24:48.992Z,15.43
2018-01-04T15:27:20.092Z,11.50
2018-01-04T15:29:52.523Z,10.07
2018-01-04T15:32:23.634Z,9.60
2018-01-04T15:34:55.028Z,11.17
2018-01-04T15:37:25.949Z,10.13
2018-01-04T15:39:57.160Z,20.47
2018-01-04T15:42:28.936Z,13.23
2018-01-04T15:44:59.877Z,14.00
2018-01-04T15:47:30.812Z,12.90
2018-01-04T15:50:02.504Z,9.20
2018-01-04T15:52:33.445Z,15.07
2018-01-04T15:55:05.348Z,18.43
2018-01-04T15:57:37.038Z,17.17
2018-01-04T16:00:08.036Z,12.17
2018-01-04T16:02:39.710Z,11.77
2018-01-04T16:05:15.589Z,9.93
2018-01-04T16:07:46.517Z,12.97
2018-01-04T16:10:17.545Z,16.40
2018-01-04T16:12:48.458Z,24.50
2018-01-04T16:15:20.152Z,17.43
2018-01-04T16:17:51.036Z,21.10
2018-01-04T16:20:21.935Z,14.83
2018-01-04T16:22:53.312Z,15.00
2018-01-04T16:25:24.302Z,15.77
2018-01-04T16:27:55.193Z,11.50
2018-01-04T16:30:26.063Z,17.63
2018-01-04T16:32:57.737Z,17.43
2018-01-04T16:35:28.639Z,11.17
2018-01-04T16:37:59.543Z,13.83
2018-01-04T16:40:30.906Z,9.97
2018-01-04T16:43:01.788Z,14.03
2018-01-04T16:45:32.693Z,12.27
2018-01-04T16:48:03.588Z,14.53
2018-01-04T16:50:34.509Z,10.83
2018-01-04T16:53:05.603Z,11.67
2018-01-04T16:55:36.475Z,12.63
2018-01-04T16:58:08.173Z,11.83
2018-01-04T17:00:39.076Z,21.43
2018-01-04T17:03:09.988Z,9.27
2018-01-04T17:05:40.894Z,13.03
2018-01-04T17:08:11.776Z,11.47
2018-01-04T17:10:43.464Z,7.30
2018-01-04T17:13:14.337Z,9.90
2018-01-04T17:15:45.241Z,7.50
2018-01-04T17:18:16.144Z,7.23
2018-01-04T17:20:47.825Z,8.80
2018-01-04T17:23:18.933Z,6.00
2018-01-04T17:25:50.621Z,9.60
2018-01-04T17:28:21.640Z,8.70
2018-01-04T17:30:53.308Z,7.30
2018-01-04T17:33:24.201Z,6.30
2018-01-04T17:35:55.104Z,4.03
2018-01-04T17:38:25.986Z,6.27
2018-01-04T17:40:57.160Z,4.00
2018-01-04T17:43:28.816Z,5.20
2018-01-04T17:46:00.515Z,9.50
2018-01-04T17:48:31.415Z,4.17
2018-01-04T17:51:03.104Z,6.93
2018-01-04T17:53:34.432Z,6.30
2018-01-04T17:56:05.346Z,8.13
2018-01-04T17:58:37.332Z,6.93
2018-01-04T18:01:08.246Z,3.77
2018-01-04T18:03:39.926Z,3.53
2018-01-04T18:06:10.843Z,2.90
2018-01-04T18:08:42.476Z,3.77
2018-01-04T18:11:13.637Z,5.43
2018-01-04T18:13:44.556Z,2.60
2018-01-04T18:16:15.444Z,7.73
2018-01-04T18:18:46.455Z,5.47
2018-01-04T18:21:18.117Z,2.63
2018-01-04T18:23:50.154Z,2.83
2018-01-04T18:26:21.105Z,10.23
2018-01-04T18:28:52.785Z,2.80
2018-01-04T18:31:23.695Z,2.73
2018-01-04T18:33:55.401Z,4.73
2018-01-04T18:36:27.088Z,5.37
2018-01-04T18:38:58.012Z,3.33
2018-01-04T18:41:29.162Z,5.73
2018-01-04T18:44:00.061Z,3.57
2018-01-04T18:46:30.932Z,2.70
2018-01-04T18:49:01.838Z,2.70
2018-01-04T18:51:32.744Z,2.80
2018-01-04T18:54:04.640Z,3.23
2018-01-04T18:56:35.512Z,2.27
2018-01-04T18:59:06.793Z,3.40
2018-01-04T19:01:38.480Z,2.73
2018-01-04T19:04:09.356Z,5.10
2018-01-04T19:06:40.284Z,7.93
2018-01-04T19:09:11.135Z,3.80
2018-01-04T19:11:42.823Z,1.63
2018-01-04T19:14:14.489Z,3.27
2018-01-04T19:16:45.421Z,8.43
2018-01-04T19:19:16.277Z,1.40
2018-01-04T19:21:47.196Z,3.57
2018-01-04T19:24:18.227Z,1.03
2018-01-04T19:26:51.092Z,4.20
2018-01-04T19:29:22.144Z,2.63
2018-01-04T19:31:53.781Z,2.03
2018-01-04T19:34:24.689Z,3.07
2018-01-04T19:36:55.588Z,2.60
2018-01-04T19:39:27.278Z,2.80
2018-01-04T19:41:58.592Z,4.97
2018-01-04T19:44:30.277Z,3.13
2018-01-04T19:47:01.185Z,7.60
2018-01-04T19:49:32.865Z,14.83
2018-01-04T19:52:03.748Z,7.20
2018-01-04T19:54:34.923Z,3.80
2018-01-04T19:57:05.855Z,6.40
2018-01-04T19:59:37.877Z,5.43
2018-01-04T20:02:08.808Z,1.80
2018-01-04T20:04:39.693Z,1.93
2018-01-04T20:07:11.405Z,5.77
2018-01-04T20:09:42.288Z,6.90
2018-01-04T20:12:14.232Z,1.33
2018-01-04T20:14:45.124Z,2.30
2018-01-04T20:17:16.128Z,7.50
2018-01-04T20:19:47.760Z,5.00
2018-01-04T20:22:18.680Z,4.67
2018-01-04T20:24:49.975Z,1.23
2018-01-04T20:27:20.868Z,11.60
2018-01-04T20:29:52.192Z,1.57
2018-01-04T20:32:23.105Z,2.70
2018-01-04T20:34:53.995Z,1.30
2018-01-04T20:37:24.913Z,2.60
2018-01-04T20:39:56.125Z,2.97
2018-01-04T20:42:27.314Z,5.43
2018-01-04T20:44:58.264Z,1.93
2018-01-04T20:47:29.168Z,1.93
2018-01-04T20:50:00.053Z,9.33
2018-01-04T20:52:31.723Z,1.67
2018-01-04T20:55:03.796Z,1.70
2018-01-04T20:57:34.679Z,2.13
2018-01-04T21:00:05.928Z,2.17
2018-01-04T21:02:36.836Z,4.30
2018-01-04T21:05:07.535Z,1.90
2018-01-04T21:07:39.209Z,2.60
2018-01-04T21:10:10.120Z,2.83
2018-01-04T21:12:42.159Z,2.03
2018-01-04T21:15:13.064Z,2.13
2018-01-04T21:17:43.961Z,3.00
2018-01-04T21:20:15.640Z,9.03
2018-01-04T21:22:46.537Z,2.20
2018-01-04T21:25:17.837Z,1.77
2018-01-04T21:27:48.746Z,3.37
2018-01-04T21:30:20.814Z,2.03
2018-01-04T21:32:52.491Z,1.90
2018-01-04T21:35:23.350Z,1.53
2018-01-04T21:37:54.268Z,10.83
2018-01-04T21:40:25.165Z,2.10
2018-01-04T21:42:56.408Z,3.17
2018-01-04T21:45:27.311Z,13.50
2018-01-04T21:47:58.241Z,4.63
2018-01-04T21:50:34.097Z,2.03
2018-01-04T21:53:05.432Z,2.30
2018-01-04T21:55:36.548Z,4.30
2018-01-04T21:58:08.235Z,2.10
2018-01-04T22:00:39.301Z,1.80
2018-01-04T22:03:10.244Z,8.33
2018-01-04T22:05:41.148Z,2.17
2018-01-04T22:08:12.029Z,1.03
2018-01-04T22:10:42.947Z,1.60
2018-01-04T22:13:14.401Z,2.20
2018-01-04T22:15:45.341Z,1.37
2018-01-04T22:18:16.233Z,2.30
2018-01-04T22:20:47.120Z,1.53
2018-01-04T22:23:18.028Z,2.40
2018-01-04T22:25:49.238Z,3.80
2018-01-04T22:28:21.896Z,1.70
2018-01-04T22:30:52.956Z,1.13
2018-01-04T22:33:24.674Z,1.23
2018-01-04T22:35:55.616Z,6.10
2018-01-04T22:38:26.562Z,1.07
2018-01-04T22:40:57.452Z,2.03
2018-01-04T22:43:28.737Z,4.03
2018-01-04T22:45:59.684Z,1.30
2018-01-04T22:48:30.587Z,2.80
2018-01-04T22:51:01.463Z,1.00
2018-01-04T22:53:32.367Z,2.20
2018-01-04T22:56:03.736Z,2.00
2018-01-04T22:58:34.728Z,3.03
2018-01-04T23:01:06.738Z,1.67
2018-01-04T23:03:37.639Z,2.97
2018-01-04T23:06:08.535Z,1.60
2018-01-04T23:08:39.428Z,1.33
2018-01-04T23:11:10.349Z,1.80
2018-01-04T23:13:41.711Z,2.20
2018-01-04T23:16:12.587Z,2.00
2018-01-04T23:18:43.492Z,1.73
2018-01-04T23:21:14.409Z,1.30
2018-01-04T23:23:45.324Z,1.57
2018-01-04T23:26:17.296Z,1.47
2018-01-04T23:28:49.011Z,2.00
2018-01-04T23:31:20.292Z,1.40
2018-01-04T23:33:51.938Z,3.13
2018-01-04T23:36:22.821Z,1.40
2018-01-04T23:38:53.752Z,1.23
2018-01-04T23:41:24.677Z,2.10
2018-01-04T23:43:55.845Z,1.97
2018-01-04T23:46:26.750Z,22.20
2018-01-04T23:48:58.422Z,13.53
2018-01-04T23:51:29.304Z,7.40
2018-01-04T23:54:00.156Z,3.10
2018-01-04T23:56:34.242Z,2.93
2018-01-04T23:59:05.864Z,3.27
